Aeroporto :
LOGIN :

Iscrizione | Disclaimer

   EN    FR    IT 

 










Sommario :    VFR   VFR Marginale   IFR   IFR Intensivo   IFR Molto Intensivo
Visibilità : 
Base nubi : 
>= 8 km
>= 3000ft
5 / 8 km
1000 / 3000 ft
1500m / 5 km
500 / 1000 ft
800 / 1500m
200 / 500 ft
< 800m
< 200 ft
Simboli :   Temporali  Nebbia  Neve Forte  Precipitazioni Forti  Vento > 20 kt
SIGMETs :   Varie  Temporali  Ghiacco  Turbolenza  Onda orograficha  Ceneri Vulcaniche






- Altitudine del aeroporto : 628 ft
- Codice IATA : CMR


LFGA - Colmar-Houssen

ULTIMO METAR :
  • 161230Z AUTO 22015KT CAVOK 26/12 Q1016

METARs OBSOLETI :
  • 161200Z AUTO 22013KT CAVOK 25/12 Q1016
  • 161130Z AUTO 22013KT CAVOK 24/12 Q1016
  • 161100Z AUTO 25012KT 220V280 CAVOK 25/12 Q1016
  • 161030Z AUTO 24008KT 200V280 CAVOK 25/14 Q1016
  • 161000Z AUTO 24010KT 9999 FEW049 24/13 Q1016
  • 160930Z AUTO 19008KT 170V240 CAVOK 23/14 Q1016
  • 160900Z AUTO 22007KT 180V240 9999 SCT052 BKN064 BKN094 23/14 Q1016
  • 160830Z AUTO 22009KT 180V240 9999 BKN056 BKN066 22/13 Q1016
  • 160800Z AUTO 23004KT 180V330 9999 FEW054 SCT086 23/13 Q1016
  • 160730Z AUTO 29005KT 250V330 9999 SCT054 SCT074 OVC094 21/14 Q1016

TAF N/A



MetMap, La meteo Aeronautica in un colpo d'occhio ! - Copyright ORBIFLY Dicembre 2007 - Disclaimer

ORBIFLY MET'MAP TEAM :

Programmazione e sviluppo : Alexandra Zaïnal
Concezione : Baudouin d'Aumeries
Supporto tecnico e logistico : Manuel Goepfert
Aiuto : Marc-Olivier Méhu
Aiuto per la traduzione : Arnaldo La Scala




FONTI E CREDITI :

   NOAA